sensor_id;sensor_type;location;lat;lon;timestamp;P1;durP1;ratioP1;P2;durP2;ratioP2
21505;SDS011;10914;48.886;9.394;2024-02-14T00:01:49;32.30;;;29.90;;
21505;SDS011;10914;48.886;9.394;2024-02-14T00:04:14;31.65;;;29.45;;
21505;SDS011;10914;48.886;9.394;2024-02-14T00:06:39;32.17;;;29.73;;
21505;SDS011;10914;48.886;9.394;2024-02-14T00:09:05;31.30;;;29.15;;
21505;SDS011;10914;48.886;9.394;2024-02-14T00:11:31;32.20;;;29.98;;
21505;SDS011;10914;48.886;9.394;2024-02-14T00:13:57;31.52;;;29.35;;
21505;SDS011;10914;48.886;9.394;2024-02-14T00:16:22;31.93;;;29.60;;
21505;SDS011;10914;48.886;9.394;2024-02-14T00:18:47;31.02;;;29.02;;
21505;SDS011;10914;48.886;9.394;2024-02-14T00:21:12;30.95;;;29.05;;
21505;SDS011;10914;48.886;9.394;2024-02-14T00:23:38;31.85;;;29.65;;
21505;SDS011;10914;48.886;9.394;2024-02-14T00:26:03;33.10;;;30.70;;
21505;SDS011;10914;48.886;9.394;2024-02-14T00:28:28;31.40;;;29.38;;
21505;SDS011;10914;48.886;9.394;2024-02-14T00:30:53;30.15;;;28.25;;
21505;SDS011;10914;48.886;9.394;2024-02-14T00:33:19;29.92;;;27.85;;
21505;SDS011;10914;48.886;9.394;2024-02-14T00:35:45;30.17;;;28.25;;
21505;SDS011;10914;48.886;9.394;2024-02-14T00:38:10;31.80;;;29.80;;
21505;SDS011;10914;48.886;9.394;2024-02-14T00:40:35;30.83;;;28.92;;
21505;SDS011;10914;48.886;9.394;2024-02-14T00:43:01;31.48;;;29.45;;
21505;SDS011;10914;48.886;9.394;2024-02-14T00:45:27;31.58;;;29.48;;
21505;SDS011;10914;48.886;9.394;2024-02-14T00:47:52;30.95;;;28.95;;
21505;SDS011;10914;48.886;9.394;2024-02-14T00:50:17;31.42;;;29.33;;
21505;SDS011;10914;48.886;9.394;2024-02-14T00:52:42;32.28;;;30.30;;
21505;SDS011;10914;48.886;9.394;2024-02-14T00:55:08;32.63;;;30.58;;
21505;SDS011;10914;48.886;9.394;2024-02-14T00:57:33;31.27;;;29.48;;
21505;SDS011;10914;48.886;9.394;2024-02-14T00:59:58;35.60;;;33.33;;
21505;SDS011;10914;48.886;9.394;2024-02-14T01:02:24;32.60;;;30.65;;
21505;SDS011;10914;48.886;9.394;2024-02-14T01:04:51;35.13;;;32.88;;
21505;SDS011;10914;48.886;9.394;2024-02-14T01:07:16;35.30;;;33.23;;
21505;SDS011;10914;48.886;9.394;2024-02-14T01:09:41;37.80;;;35.65;;
21505;SDS011;10914;48.886;9.394;2024-02-14T01:12:06;39.73;;;37.13;;
21505;SDS011;10914;48.886;9.394;2024-02-14T01:14:31;42.83;;;40.13;;
21505;SDS011;10914;48.886;9.394;2024-02-14T01:16:57;40.20;;;37.70;;
21505;SDS011;10914;48.886;9.394;2024-02-14T01:19:22;41.67;;;39.28;;
21505;SDS011;10914;48.886;9.394;2024-02-14T01:21:49;47.88;;;45.22;;
21505;SDS011;10914;48.886;9.394;2024-02-14T01:24:14;47.72;;;44.90;;
21505;SDS011;10914;48.886;9.394;2024-02-14T01:26:39;47.65;;;44.92;;
21505;SDS011;10914;48.886;9.394;2024-02-14T01:29:05;49.15;;;46.05;;
21505;SDS011;10914;48.886;9.394;2024-02-14T01:31:30;44.85;;;42.13;;
21505;SDS011;10914;48.886;9.394;2024-02-14T01:33:56;48.90;;;45.83;;
21505;SDS011;10914;48.886;9.394;2024-02-14T01:36:22;48.75;;;45.55;;
21505;SDS011;10914;48.886;9.394;2024-02-14T01:38:47;47.60;;;44.70;;
21505;SDS011;10914;48.886;9.394;2024-02-14T01:41:13;47.20;;;44.33;;
21505;SDS011;10914;48.886;9.394;2024-02-14T01:43:38;46.28;;;43.50;;
21505;SDS011;10914;48.886;9.394;2024-02-14T01:46:06;45.30;;;42.60;;
21505;SDS011;10914;48.886;9.394;2024-02-14T01:48:31;47.15;;;44.38;;
21505;SDS011;10914;48.886;9.394;2024-02-14T01:50:58;48.17;;;45.00;;
21505;SDS011;10914;48.886;9.394;2024-02-14T01:53:24;46.63;;;43.85;;
21505;SDS011;10914;48.886;9.394;2024-02-14T01:55:50;49.85;;;46.95;;
21505;SDS011;10914;48.886;9.394;2024-02-14T01:58:15;49.03;;;46.17;;
21505;SDS011;10914;48.886;9.394;2024-02-14T02:00:40;48.93;;;46.03;;
21505;SDS011;10914;48.886;9.394;2024-02-14T02:03:06;47.17;;;44.28;;
21505;SDS011;10914;48.886;9.394;2024-02-14T02:05:31;46.80;;;43.88;;
21505;SDS011;10914;48.886;9.394;2024-02-14T02:07:56;47.90;;;44.97;;
21505;SDS011;10914;48.886;9.394;2024-02-14T02:10:21;45.38;;;42.25;;
21505;SDS011;10914;48.886;9.394;2024-02-14T02:12:47;43.60;;;40.83;;
21505;SDS011;10914;48.886;9.394;2024-02-14T02:15:12;45.40;;;42.50;;
21505;SDS011;10914;48.886;9.394;2024-02-14T02:17:39;46.08;;;43.33;;
21505;SDS011;10914;48.886;9.394;2024-02-14T02:20:05;46.95;;;44.10;;
21505;SDS011;10914;48.886;9.394;2024-02-14T02:22:32;46.30;;;43.50;;
21505;SDS011;10914;48.886;9.394;2024-02-14T02:25:00;44.85;;;42.13;;
21505;SDS011;10914;48.886;9.394;2024-02-14T02:27:25;45.60;;;42.80;;
21505;SDS011;10914;48.886;9.394;2024-02-14T02:29:50;45.95;;;43.05;;
21505;SDS011;10914;48.886;9.394;2024-02-14T02:32:15;44.42;;;41.75;;
21505;SDS011;10914;48.886;9.394;2024-02-14T02:34:42;45.42;;;42.67;;
21505;SDS011;10914;48.886;9.394;2024-02-14T02:37:10;45.25;;;42.47;;
21505;SDS011;10914;48.886;9.394;2024-02-14T02:39:35;45.25;;;42.35;;
21505;SDS011;10914;48.886;9.394;2024-02-14T02:42:01;45.88;;;42.88;;
21505;SDS011;10914;48.886;9.394;2024-02-14T02:44:27;44.30;;;41.50;;
21505;SDS011;10914;48.886;9.394;2024-02-14T02:46:52;42.33;;;39.70;;
21505;SDS011;10914;48.886;9.394;2024-02-14T02:49:17;43.75;;;41.13;;
21505;SDS011;10914;48.886;9.394;2024-02-14T02:51:42;42.92;;;40.17;;
21505;SDS011;10914;48.886;9.394;2024-02-14T02:54:07;40.72;;;37.97;;
21505;SDS011;10914;48.886;9.394;2024-02-14T02:56:33;37.83;;;35.28;;
21505;SDS011;10914;48.886;9.394;2024-02-14T02:58:58;36.28;;;34.05;;
21505;SDS011;10914;48.886;9.394;2024-02-14T03:01:24;35.88;;;33.78;;
21505;SDS011;10914;48.886;9.394;2024-02-14T03:03:49;32.88;;;30.77;;
21505;SDS011;10914;48.886;9.394;2024-02-14T03:06:15;28.40;;;26.70;;
21505;SDS011;10914;48.886;9.394;2024-02-14T03:08:40;28.33;;;26.67;;
21505;SDS011;10914;48.886;9.394;2024-02-14T03:11:05;26.90;;;25.30;;
21505;SDS011;10914;48.886;9.394;2024-02-14T03:13:31;26.95;;;25.40;;
21505;SDS011;10914;48.886;9.394;2024-02-14T03:15:56;26.27;;;24.60;;
21505;SDS011;10914;48.886;9.394;2024-02-14T03:18:23;26.08;;;24.65;;
21505;SDS011;10914;48.886;9.394;2024-02-14T03:20:48;26.47;;;24.83;;
21505;SDS011;10914;48.886;9.394;2024-02-14T03:23:14;26.23;;;24.63;;
21505;SDS011;10914;48.886;9.394;2024-02-14T03:25:40;27.15;;;25.55;;
21505;SDS011;10914;48.886;9.394;2024-02-14T03:28:05;27.77;;;26.07;;
21505;SDS011;10914;48.886;9.394;2024-02-14T03:30:36;26.65;;;25.15;;
21505;SDS011;10914;48.886;9.394;2024-02-14T03:33:02;27.15;;;25.58;;
21505;SDS011;10914;48.886;9.394;2024-02-14T03:35:27;27.30;;;25.60;;
21505;SDS011;10914;48.886;9.394;2024-02-14T03:37:52;27.40;;;25.77;;
21505;SDS011;10914;48.886;9.394;2024-02-14T03:40:18;26.20;;;24.42;;
21505;SDS011;10914;48.886;9.394;2024-02-14T03:42:45;26.50;;;25.00;;
21505;SDS011;10914;48.886;9.394;2024-02-14T03:45:10;28.13;;;26.33;;
21505;SDS011;10914;48.886;9.394;2024-02-14T03:47:36;32.05;;;29.80;;
21505;SDS011;10914;48.886;9.394;2024-02-14T03:50:04;31.92;;;29.92;;
21505;SDS011;10914;48.886;9.394;2024-02-14T03:52:30;30.85;;;28.73;;
21505;SDS011;10914;48.886;9.394;2024-02-14T03:54:57;31.17;;;28.95;;
21505;SDS011;10914;48.886;9.394;2024-02-14T03:57:23;30.27;;;28.27;;
21505;SDS011;10914;48.886;9.394;2024-02-14T03:59:50;30.33;;;28.33;;
21505;SDS011;10914;48.886;9.394;2024-02-14T04:02:15;29.73;;;27.83;;
21505;SDS011;10914;48.886;9.394;2024-02-14T04:04:41;30.50;;;28.33;;
21505;SDS011;10914;48.886;9.394;2024-02-14T04:07:07;30.00;;;28.00;;
21505;SDS011;10914;48.886;9.394;2024-02-14T04:09:33;30.48;;;28.48;;
21505;SDS011;10914;48.886;9.394;2024-02-14T04:11:58;31.17;;;28.73;;
21505;SDS011;10914;48.886;9.394;2024-02-14T04:14:24;29.85;;;28.05;;
21505;SDS011;10914;48.886;9.394;2024-02-14T04:16:49;29.80;;;27.85;;
21505;SDS011;10914;48.886;9.394;2024-02-14T04:19:14;29.83;;;27.92;;
21505;SDS011;10914;48.886;9.394;2024-02-14T04:21:42;27.65;;;26.05;;
21505;SDS011;10914;48.886;9.394;2024-02-14T04:24:07;30.35;;;28.13;;
21505;SDS011;10914;48.886;9.394;2024-02-14T04:26:33;31.85;;;29.67;;
21505;SDS011;10914;48.886;9.394;2024-02-14T04:28:58;28.13;;;26.25;;
21505;SDS011;10914;48.886;9.394;2024-02-14T04:31:23;27.70;;;26.10;;
21505;SDS011;10914;48.886;9.394;2024-02-14T04:33:48;26.97;;;25.47;;
21505;SDS011;10914;48.886;9.394;2024-02-14T04:36:17;26.77;;;25.08;;
21505;SDS011;10914;48.886;9.394;2024-02-14T04:38:42;26.23;;;24.80;;
21505;SDS011;10914;48.886;9.394;2024-02-14T04:41:07;26.70;;;25.00;;
21505;SDS011;10914;48.886;9.394;2024-02-14T04:43:35;26.90;;;25.30;;
21505;SDS011;10914;48.886;9.394;2024-02-14T04:46:00;26.60;;;25.10;;
21505;SDS011;10914;48.886;9.394;2024-02-14T04:48:25;27.15;;;25.70;;
21505;SDS011;10914;48.886;9.394;2024-02-14T04:50:50;26.55;;;24.95;;
21505;SDS011;10914;48.886;9.394;2024-02-14T04:53:16;27.10;;;25.67;;
21505;SDS011;10914;48.886;9.394;2024-02-14T04:55:41;27.55;;;25.85;;
21505;SDS011;10914;48.886;9.394;2024-02-14T04:58:06;26.83;;;25.25;;
21505;SDS011;10914;48.886;9.394;2024-02-14T05:00:32;26.00;;;24.50;;
21505;SDS011;10914;48.886;9.394;2024-02-14T05:02:57;25.47;;;23.97;;
21505;SDS011;10914;48.886;9.394;2024-02-14T05:05:22;25.90;;;24.33;;
21505;SDS011;10914;48.886;9.394;2024-02-14T05:07:48;25.38;;;23.70;;
21505;SDS011;10914;48.886;9.394;2024-02-14T05:10:13;25.63;;;24.13;;
21505;SDS011;10914;48.886;9.394;2024-02-14T05:12:39;25.48;;;23.98;;
21505;SDS011;10914;48.886;9.394;2024-02-14T05:15:04;25.63;;;23.90;;
21505;SDS011;10914;48.886;9.394;2024-02-14T05:17:30;25.05;;;23.55;;
21505;SDS011;10914;48.886;9.394;2024-02-14T05:19:55;25.65;;;24.10;;
21505;SDS011;10914;48.886;9.394;2024-02-14T05:22:21;25.17;;;23.70;;
21505;SDS011;10914;48.886;9.394;2024-02-14T05:24:46;26.13;;;24.35;;
21505;SDS011;10914;48.886;9.394;2024-02-14T05:27:12;26.15;;;24.15;;
21505;SDS011;10914;48.886;9.394;2024-02-14T05:29:37;25.50;;;23.95;;
21505;SDS011;10914;48.886;9.394;2024-02-14T05:32:02;25.73;;;24.33;;
21505;SDS011;10914;48.886;9.394;2024-02-14T05:34:27;26.02;;;24.50;;
21505;SDS011;10914;48.886;9.394;2024-02-14T05:36:52;27.08;;;25.38;;
21505;SDS011;10914;48.886;9.394;2024-02-14T05:39:18;26.13;;;24.55;;
21505;SDS011;10914;48.886;9.394;2024-02-14T05:41:44;27.33;;;25.80;;
21505;SDS011;10914;48.886;9.394;2024-02-14T05:44:09;28.63;;;27.08;;
21505;SDS011;10914;48.886;9.394;2024-02-14T05:46:34;28.50;;;26.85;;
21505;SDS011;10914;48.886;9.394;2024-02-14T05:48:59;29.30;;;27.60;;
21505;SDS011;10914;48.886;9.394;2024-02-14T05:51:24;30.37;;;28.67;;
21505;SDS011;10914;48.886;9.394;2024-02-14T05:53:50;29.42;;;27.83;;
21505;SDS011;10914;48.886;9.394;2024-02-14T05:56:15;29.85;;;28.27;;
21505;SDS011;10914;48.886;9.394;2024-02-14T05:58:40;30.42;;;28.83;;
21505;SDS011;10914;48.886;9.394;2024-02-14T06:01:05;29.40;;;27.90;;
21505;SDS011;10914;48.886;9.394;2024-02-14T06:03:31;28.50;;;27.00;;
21505;SDS011;10914;48.886;9.394;2024-02-14T06:05:56;28.65;;;27.05;;
21505;SDS011;10914;48.886;9.394;2024-02-14T06:08:21;29.42;;;27.83;;
21505;SDS011;10914;48.886;9.394;2024-02-14T06:10:48;30.00;;;27.67;;
21505;SDS011;10914;48.886;9.394;2024-02-14T06:13:13;29.10;;;27.40;;
21505;SDS011;10914;48.886;9.394;2024-02-14T06:15:39;30.13;;;28.30;;
21505;SDS011;10914;48.886;9.394;2024-02-14T06:18:04;29.07;;;27.47;;
21505;SDS011;10914;48.886;9.394;2024-02-14T06:20:29;29.05;;;27.65;;
21505;SDS011;10914;48.886;9.394;2024-02-14T06:22:54;28.73;;;27.23;;
21505;SDS011;10914;48.886;9.394;2024-02-14T06:25:19;28.88;;;27.38;;
21505;SDS011;10914;48.886;9.394;2024-02-14T06:27:45;29.77;;;28.17;;
21505;SDS011;10914;48.886;9.394;2024-02-14T06:30:10;30.30;;;28.67;;
21505;SDS011;10914;48.886;9.394;2024-02-14T06:32:35;29.52;;;28.02;;
21505;SDS011;10914;48.886;9.394;2024-02-14T06:35:01;28.60;;;27.10;;
21505;SDS011;10914;48.886;9.394;2024-02-14T06:37:26;29.20;;;27.60;;
21505;SDS011;10914;48.886;9.394;2024-02-14T06:39:52;30.15;;;28.33;;
21505;SDS011;10914;48.886;9.394;2024-02-14T06:42:17;30.10;;;28.38;;
21505;SDS011;10914;48.886;9.394;2024-02-14T06:44:42;28.02;;;26.48;;
21505;SDS011;10914;48.886;9.394;2024-02-14T06:47:07;29.02;;;27.25;;
21505;SDS011;10914;48.886;9.394;2024-02-14T06:49:32;30.27;;;28.40;;
21505;SDS011;10914;48.886;9.394;2024-02-14T06:51:58;29.90;;;28.25;;
21505;SDS011;10914;48.886;9.394;2024-02-14T06:54:23;29.38;;;27.30;;
21505;SDS011;10914;48.886;9.394;2024-02-14T06:56:48;28.95;;;27.52;;
21505;SDS011;10914;48.886;9.394;2024-02-14T06:59:13;29.60;;;27.80;;
21505;SDS011;10914;48.886;9.394;2024-02-14T07:01:38;28.27;;;26.60;;
21505;SDS011;10914;48.886;9.394;2024-02-14T07:04:03;28.03;;;26.57;;
21505;SDS011;10914;48.886;9.394;2024-02-14T07:06:29;27.58;;;26.00;;
21505;SDS011;10914;48.886;9.394;2024-02-14T07:08:55;27.30;;;25.90;;
21505;SDS011;10914;48.886;9.394;2024-02-14T07:11:20;27.52;;;26.13;;
21505;SDS011;10914;48.886;9.394;2024-02-14T07:13:45;26.75;;;25.25;;
21505;SDS011;10914;48.886;9.394;2024-02-14T07:16:10;26.23;;;24.92;;
21505;SDS011;10914;48.886;9.394;2024-02-14T07:18:35;27.20;;;25.57;;
21505;SDS011;10914;48.886;9.394;2024-02-14T07:21:01;27.15;;;25.55;;
21505;SDS011;10914;48.886;9.394;2024-02-14T07:23:30;26.10;;;24.80;;
21505;SDS011;10914;48.886;9.394;2024-02-14T07:25:55;27.50;;;26.10;;
21505;SDS011;10914;48.886;9.394;2024-02-14T07:28:20;27.60;;;26.10;;
21505;SDS011;10914;48.886;9.394;2024-02-14T07:30:46;27.85;;;26.35;;
21505;SDS011;10914;48.886;9.394;2024-02-14T07:33:11;28.50;;;26.77;;
21505;SDS011;10914;48.886;9.394;2024-02-14T07:35:36;26.73;;;25.33;;
21505;SDS011;10914;48.886;9.394;2024-02-14T07:38:01;26.52;;;25.02;;
21505;SDS011;10914;48.886;9.394;2024-02-14T07:40:27;27.65;;;26.00;;
21505;SDS011;10914;48.886;9.394;2024-02-14T07:42:55;26.95;;;25.20;;
21505;SDS011;10914;48.886;9.394;2024-02-14T07:45:20;26.88;;;25.35;;
21505;SDS011;10914;48.886;9.394;2024-02-14T07:47:45;26.73;;;25.00;;
21505;SDS011;10914;48.886;9.394;2024-02-14T07:50:10;26.73;;;25.33;;
21505;SDS011;10914;48.886;9.394;2024-02-14T07:52:36;26.08;;;24.48;;
21505;SDS011;10914;48.886;9.394;2024-02-14T07:55:01;25.75;;;24.15;;
21505;SDS011;10914;48.886;9.394;2024-02-14T07:57:26;25.67;;;24.20;;
21505;SDS011;10914;48.886;9.394;2024-02-14T07:59:52;26.15;;;24.52;;
21505;SDS011;10914;48.886;9.394;2024-02-14T08:02:17;24.13;;;22.83;;
21505;SDS011;10914;48.886;9.394;2024-02-14T08:04:43;24.65;;;23.23;;
21505;SDS011;10914;48.886;9.394;2024-02-14T08:07:08;24.83;;;23.33;;
21505;SDS011;10914;48.886;9.394;2024-02-14T08:09:34;25.27;;;23.67;;
21505;SDS011;10914;48.886;9.394;2024-02-14T08:11:59;23.52;;;22.23;;
21505;SDS011;10914;48.886;9.394;2024-02-14T08:14:24;24.65;;;23.17;;
21505;SDS011;10914;48.886;9.394;2024-02-14T08:16:49;24.20;;;22.80;;
21505;SDS011;10914;48.886;9.394;2024-02-14T08:19:16;23.90;;;22.63;;
21505;SDS011;10914;48.886;9.394;2024-02-14T08:21:42;24.75;;;23.38;;
21505;SDS011;10914;48.886;9.394;2024-02-14T08:24:07;24.40;;;22.93;;
21505;SDS011;10914;48.886;9.394;2024-02-14T08:26:32;24.20;;;22.70;;
21505;SDS011;10914;48.886;9.394;2024-02-14T08:28:57;24.55;;;23.17;;
21505;SDS011;10914;48.886;9.394;2024-02-14T08:31:23;24.27;;;22.88;;
21505;SDS011;10914;48.886;9.394;2024-02-14T08:33:48;24.38;;;22.98;;
21505;SDS011;10914;48.886;9.394;2024-02-14T08:36:13;23.73;;;22.40;;
21505;SDS011;10914;48.886;9.394;2024-02-14T08:38:38;23.58;;;22.27;;
21505;SDS011;10914;48.886;9.394;2024-02-14T08:41:04;24.35;;;22.83;;
21505;SDS011;10914;48.886;9.394;2024-02-14T08:43:29;24.23;;;22.92;;
21505;SDS011;10914;48.886;9.394;2024-02-14T08:45:55;23.50;;;22.20;;
21505;SDS011;10914;48.886;9.394;2024-02-14T08:48:20;24.40;;;22.95;;
21505;SDS011;10914;48.886;9.394;2024-02-14T08:50:45;24.88;;;23.20;;
21505;SDS011;10914;48.886;9.394;2024-02-14T08:53:11;23.95;;;22.58;;
21505;SDS011;10914;48.886;9.394;2024-02-14T08:55:38;23.52;;;22.13;;
21505;SDS011;10914;48.886;9.394;2024-02-14T08:58:04;25.67;;;24.17;;
21505;SDS011;10914;48.886;9.394;2024-02-14T09:00:29;23.48;;;22.17;;
21505;SDS011;10914;48.886;9.394;2024-02-14T09:02:55;23.35;;;22.13;;
21505;SDS011;10914;48.886;9.394;2024-02-14T09:05:20;25.70;;;24.13;;
21505;SDS011;10914;48.886;9.394;2024-02-14T09:07:47;27.90;;;26.25;;
21505;SDS011;10914;48.886;9.394;2024-02-14T09:10:12;27.77;;;26.33;;
21505;SDS011;10914;48.886;9.394;2024-02-14T09:12:38;30.17;;;28.40;;
21505;SDS011;10914;48.886;9.394;2024-02-14T09:15:03;29.63;;;27.95;;
21505;SDS011;10914;48.886;9.394;2024-02-14T09:17:29;28.27;;;26.77;;
21505;SDS011;10914;48.886;9.394;2024-02-14T09:19:55;28.60;;;27.13;;
21505;SDS011;10914;48.886;9.394;2024-02-14T09:22:20;29.53;;;28.00;;
21505;SDS011;10914;48.886;9.394;2024-02-14T09:24:46;29.05;;;27.50;;
21505;SDS011;10914;48.886;9.394;2024-02-14T09:27:12;28.75;;;26.77;;
21505;SDS011;10914;48.886;9.394;2024-02-14T09:29:37;28.70;;;27.02;;
21505;SDS011;10914;48.886;9.394;2024-02-14T09:32:03;28.35;;;26.85;;
21505;SDS011;10914;48.886;9.394;2024-02-14T09:34:28;28.10;;;26.30;;
21505;SDS011;10914;48.886;9.394;2024-02-14T09:36:53;26.33;;;24.65;;
21505;SDS011;10914;48.886;9.394;2024-02-14T09:39:19;31.52;;;29.42;;
21505;SDS011;10914;48.886;9.394;2024-02-14T09:41:44;26.27;;;24.60;;
21505;SDS011;10914;48.886;9.394;2024-02-14T09:44:12;27.33;;;25.63;;
21505;SDS011;10914;48.886;9.394;2024-02-14T09:46:37;26.63;;;25.10;;
21505;SDS011;10914;48.886;9.394;2024-02-14T09:49:03;25.38;;;23.98;;
21505;SDS011;10914;48.886;9.394;2024-02-14T09:51:28;25.08;;;23.50;;
21505;SDS011;10914;48.886;9.394;2024-02-14T09:53:54;25.23;;;23.92;;
21505;SDS011;10914;48.886;9.394;2024-02-14T09:56:20;25.50;;;23.90;;
21505;SDS011;10914;48.886;9.394;2024-02-14T09:58:47;26.08;;;24.30;;
21505;SDS011;10914;48.886;9.394;2024-02-14T10:01:20;25.55;;;24.15;;
21505;SDS011;10914;48.886;9.394;2024-02-14T10:03:48;25.25;;;23.75;;
21505;SDS011;10914;48.886;9.394;2024-02-14T10:06:15;25.23;;;23.55;;
21505;SDS011;10914;48.886;9.394;2024-02-14T10:08:40;25.40;;;23.98;;
21505;SDS011;10914;48.886;9.394;2024-02-14T10:11:06;23.77;;;22.38;;
21505;SDS011;10914;48.886;9.394;2024-02-14T10:13:31;23.38;;;22.08;;
21505;SDS011;10914;48.886;9.394;2024-02-14T10:15:56;23.10;;;21.67;;
21505;SDS011;10914;48.886;9.394;2024-02-14T10:18:22;22.58;;;21.17;;
21505;SDS011;10914;48.886;9.394;2024-02-14T10:20:54;25.20;;;23.70;;
21505;SDS011;10914;48.886;9.394;2024-02-14T10:23:19;26.13;;;24.02;;
21505;SDS011;10914;48.886;9.394;2024-02-14T10:25:45;23.40;;;22.00;;
21505;SDS011;10914;48.886;9.394;2024-02-14T10:28:10;24.77;;;22.93;;
21505;SDS011;10914;48.886;9.394;2024-02-14T10:30:35;26.57;;;24.67;;
21505;SDS011;10914;48.886;9.394;2024-02-14T10:33:03;25.40;;;23.80;;
21505;SDS011;10914;48.886;9.394;2024-02-14T10:35:28;24.73;;;23.02;;
21505;SDS011;10914;48.886;9.394;2024-02-14T10:37:55;23.27;;;21.80;;
21505;SDS011;10914;48.886;9.394;2024-02-14T10:40:25;24.65;;;23.15;;
21505;SDS011;10914;48.886;9.394;2024-02-14T10:42:52;31.92;;;29.33;;
21505;SDS011;10914;48.886;9.394;2024-02-14T10:45:19;29.38;;;27.02;;
21505;SDS011;10914;48.886;9.394;2024-02-14T10:47:44;25.40;;;23.53;;
21505;SDS011;10914;48.886;9.394;2024-02-14T10:50:12;22.35;;;21.05;;
21505;SDS011;10914;48.886;9.394;2024-02-14T10:52:39;24.88;;;23.45;;
21505;SDS011;10914;48.886;9.394;2024-02-14T10:55:05;28.50;;;26.70;;
21505;SDS011;10914;48.886;9.394;2024-02-14T10:57:31;27.23;;;25.77;;
21505;SDS011;10914;48.886;9.394;2024-02-14T10:59:57;24.60;;;23.20;;
21505;SDS011;10914;48.886;9.394;2024-02-14T11:02:24;22.50;;;21.20;;
21505;SDS011;10914;48.886;9.394;2024-02-14T11:04:49;21.85;;;20.65;;
21505;SDS011;10914;48.886;9.394;2024-02-14T11:07:18;21.65;;;20.42;;
21505;SDS011;10914;48.886;9.394;2024-02-14T11:09:44;21.73;;;20.52;;
21505;SDS011;10914;48.886;9.394;2024-02-14T11:12:12;22.00;;;20.70;;
21505;SDS011;10914;48.886;9.394;2024-02-14T11:14:37;21.33;;;20.17;;
21505;SDS011;10914;48.886;9.394;2024-02-14T11:17:09;21.20;;;20.10;;
21505;SDS011;10914;48.886;9.394;2024-02-14T11:19:34;20.45;;;19.35;;
21505;SDS011;10914;48.886;9.394;2024-02-14T11:22:20;22.30;;;20.92;;
21505;SDS011;10914;48.886;9.394;2024-02-14T11:24:45;21.90;;;20.70;;
21505;SDS011;10914;48.886;9.394;2024-02-14T11:27:11;22.58;;;21.38;;
21505;SDS011;10914;48.886;9.394;2024-02-14T11:29:38;24.67;;;23.27;;
21505;SDS011;10914;48.886;9.394;2024-02-14T11:32:03;27.52;;;25.85;;
21505;SDS011;10914;48.886;9.394;2024-02-14T11:34:33;26.77;;;25.48;;
21505;SDS011;10914;48.886;9.394;2024-02-14T11:36:58;24.77;;;23.47;;
21505;SDS011;10914;48.886;9.394;2024-02-14T11:39:24;23.25;;;22.00;;
21505;SDS011;10914;48.886;9.394;2024-02-14T11:41:50;22.00;;;20.70;;
21505;SDS011;10914;48.886;9.394;2024-02-14T11:44:15;21.37;;;20.20;;
21505;SDS011;10914;48.886;9.394;2024-02-14T11:46:40;21.40;;;20.25;;
21505;SDS011;10914;48.886;9.394;2024-02-14T11:49:06;21.40;;;20.20;;
21505;SDS011;10914;48.886;9.394;2024-02-14T11:51:35;22.15;;;20.77;;
21505;SDS011;10914;48.886;9.394;2024-02-14T11:54:04;22.50;;;21.20;;
21505;SDS011;10914;48.886;9.394;2024-02-14T11:56:33;21.00;;;19.90;;
21505;SDS011;10914;48.886;9.394;2024-02-14T11:58:59;21.58;;;20.38;;
21505;SDS011;10914;48.886;9.394;2024-02-14T12:01:25;21.70;;;20.38;;
21505;SDS011;10914;48.886;9.394;2024-02-14T12:03:50;20.52;;;19.52;;
21505;SDS011;10914;48.886;9.394;2024-02-14T12:06:15;22.17;;;20.98;;
21505;SDS011;10914;48.886;9.394;2024-02-14T12:08:40;22.23;;;21.13;;
21505;SDS011;10914;48.886;9.394;2024-02-14T12:11:06;21.98;;;20.73;;
21505;SDS011;10914;48.886;9.394;2024-02-14T12:13:31;22.13;;;20.92;;
21505;SDS011;10914;48.886;9.394;2024-02-14T12:16:02;21.33;;;20.23;;
21505;SDS011;10914;48.886;9.394;2024-02-14T12:18:28;21.50;;;20.40;;
21505;SDS011;10914;48.886;9.394;2024-02-14T12:20:53;21.45;;;20.42;;
21505;SDS011;10914;48.886;9.394;2024-02-14T12:23:27;21.05;;;19.95;;
21505;SDS011;10914;48.886;9.394;2024-02-14T12:25:53;21.02;;;19.92;;
21505;SDS011;10914;48.886;9.394;2024-02-14T12:28:19;21.02;;;20.02;;
21505;SDS011;10914;48.886;9.394;2024-02-14T12:30:47;22.20;;;20.95;;
21505;SDS011;10914;48.886;9.394;2024-02-14T12:33:21;22.40;;;21.00;;
21505;SDS011;10914;48.886;9.394;2024-02-14T12:35:47;21.90;;;20.70;;
21505;SDS011;10914;48.886;9.394;2024-02-14T12:38:13;20.85;;;19.85;;
21505;SDS011;10914;48.886;9.394;2024-02-14T12:40:39;21.50;;;20.30;;
21505;SDS011;10914;48.886;9.394;2024-02-14T12:43:08;21.48;;;20.40;;
21505;SDS011;10914;48.886;9.394;2024-02-14T12:45:33;20.65;;;19.65;;
21505;SDS011;10914;48.886;9.394;2024-02-14T12:47:58;20.85;;;19.75;;
21505;SDS011;10914;48.886;9.394;2024-02-14T12:50:24;23.65;;;22.35;;
21505;SDS011;10914;48.886;9.394;2024-02-14T12:52:49;24.60;;;23.23;;
21505;SDS011;10914;48.886;9.394;2024-02-14T12:55:14;24.30;;;23.15;;
21505;SDS011;10914;48.886;9.394;2024-02-14T12:57:40;21.15;;;20.08;;
21505;SDS011;10914;48.886;9.394;2024-02-14T13:00:05;21.48;;;20.45;;
21505;SDS011;10914;48.886;9.394;2024-02-14T13:02:34;22.88;;;21.38;;
21505;SDS011;10914;48.886;9.394;2024-02-14T13:04:59;23.17;;;21.77;;
21505;SDS011;10914;48.886;9.394;2024-02-14T13:07:24;20.25;;;19.15;;
21505;SDS011;10914;48.886;9.394;2024-02-14T13:09:50;25.60;;;23.88;;
21505;SDS011;10914;48.886;9.394;2024-02-14T13:12:16;20.58;;;19.40;;
21505;SDS011;10914;48.886;9.394;2024-02-14T13:14:41;20.85;;;19.65;;
21505;SDS011;10914;48.886;9.394;2024-02-14T13:17:06;20.23;;;19.20;;
21505;SDS011;10914;48.886;9.394;2024-02-14T13:19:31;20.35;;;19.30;;
21505;SDS011;10914;48.886;9.394;2024-02-14T13:21:57;20.50;;;19.50;;
21505;SDS011;10914;48.886;9.394;2024-02-14T13:24:22;20.27;;;19.37;;
21505;SDS011;10914;48.886;9.394;2024-02-14T13:26:47;21.63;;;20.42;;
21505;SDS011;10914;48.886;9.394;2024-02-14T13:29:12;20.00;;;18.90;;
21505;SDS011;10914;48.886;9.394;2024-02-14T13:31:37;19.40;;;18.40;;
21505;SDS011;10914;48.886;9.394;2024-02-14T13:34:02;19.60;;;18.50;;
21505;SDS011;10914;48.886;9.394;2024-02-14T13:36:28;20.40;;;19.40;;
21505;SDS011;10914;48.886;9.394;2024-02-14T13:38:53;20.45;;;19.40;;
21505;SDS011;10914;48.886;9.394;2024-02-14T13:41:19;19.13;;;18.23;;
21505;SDS011;10914;48.886;9.394;2024-02-14T13:43:44;21.05;;;20.02;;
21505;SDS011;10914;48.886;9.394;2024-02-14T13:46:09;21.67;;;20.57;;
21505;SDS011;10914;48.886;9.394;2024-02-14T13:48:34;20.10;;;19.00;;
21505;SDS011;10914;48.886;9.394;2024-02-14T13:51:00;20.40;;;19.30;;
21505;SDS011;10914;48.886;9.394;2024-02-14T13:53:26;20.55;;;19.55;;
21505;SDS011;10914;48.886;9.394;2024-02-14T13:55:51;21.10;;;20.10;;
21505;SDS011;10914;48.886;9.394;2024-02-14T13:58:16;21.33;;;20.33;;
21505;SDS011;10914;48.886;9.394;2024-02-14T14:00:42;20.48;;;19.38;;
21505;SDS011;10914;48.886;9.394;2024-02-14T14:03:07;20.33;;;19.27;;
21505;SDS011;10914;48.886;9.394;2024-02-14T14:05:32;20.55;;;19.45;;
21505;SDS011;10914;48.886;9.394;2024-02-14T14:07:58;20.67;;;19.57;;
21505;SDS011;10914;48.886;9.394;2024-02-14T14:10:24;20.90;;;19.90;;
21505;SDS011;10914;48.886;9.394;2024-02-14T14:12:52;20.63;;;19.45;;